createdAt,value
2023-08-17T00:01:30.402Z,2.38
2023-08-17T00:04:01.707Z,2.85
2023-08-17T00:06:31.606Z,2.85
2023-08-17T00:09:01.150Z,2.95
2023-08-17T00:11:30.784Z,2.70
2023-08-17T00:14:00.395Z,2.75
2023-08-17T00:16:30.451Z,2.85
2023-08-17T00:19:01.546Z,2.92
2023-08-17T00:21:31.003Z,2.70
2023-08-17T00:24:00.677Z,2.70
2023-08-17T00:26:30.121Z,2.47
2023-08-17T00:28:59.692Z,2.65
2023-08-17T00:31:29.364Z,3.25
2023-08-17T00:34:00.509Z,2.90
2023-08-17T00:36:30.136Z,3.10
2023-08-17T00:38:59.730Z,3.10
2023-08-17T00:41:29.988Z,3.00
2023-08-17T00:43:59.727Z,2.58
2023-08-17T00:47:52.264Z,2.95
2023-08-17T00:50:22.215Z,2.60
2023-08-17T00:52:52.168Z,3.30
2023-08-17T00:55:22.093Z,2.83
2023-08-17T00:57:51.995Z,3.55
2023-08-17T01:00:22.426Z,3.08
2023-08-17T01:02:54.464Z,2.90
2023-08-17T01:05:24.470Z,3.45
2023-08-17T01:07:54.095Z,2.90
2023-08-17T01:10:23.862Z,3.22
2023-08-17T01:13:06.463Z,3.22
2023-08-17T01:15:41.345Z,3.05
2023-08-17T01:18:24.707Z,3.35
2023-08-17T01:20:57.189Z,3.83
2023-08-17T01:23:28.422Z,3.75
2023-08-17T01:25:58.783Z,3.55
2023-08-17T01:28:28.569Z,3.17
2023-08-17T01:31:02.307Z,3.58
2023-08-17T01:33:38.103Z,3.45
2023-08-17T01:36:15.997Z,3.50
2023-08-17T01:38:49.384Z,3.42
2023-08-17T01:41:19.960Z,2.90
2023-08-17T01:43:50.173Z,3.30
2023-08-17T01:46:21.970Z,3.50
2023-08-17T01:48:51.728Z,3.58
2023-08-17T01:51:22.429Z,4.20
2023-08-17T01:53:53.562Z,3.63
2023-08-17T01:56:23.055Z,3.00
2023-08-17T01:58:52.694Z,3.55
2023-08-17T02:01:22.433Z,2.95
2023-08-17T02:03:52.002Z,3.05
2023-08-17T02:06:21.729Z,3.40
2023-08-17T02:08:53.131Z,3.45
2023-08-17T02:11:22.873Z,3.25
2023-08-17T02:13:52.338Z,3.15
2023-08-17T02:16:21.981Z,3.03
2023-08-17T02:18:51.364Z,3.22
2023-08-17T02:21:21.133Z,3.35
2023-08-17T02:23:52.137Z,3.10
2023-08-17T02:26:21.752Z,2.92
2023-08-17T02:28:51.232Z,3.30
2023-08-17T02:31:20.794Z,3.33
2023-08-17T02:33:50.461Z,3.40
2023-08-17T02:36:20.096Z,3.10
2023-08-17T02:38:49.681Z,3.20
2023-08-17T02:41:20.763Z,3.10
2023-08-17T02:43:50.362Z,3.30
2023-08-17T02:46:20.054Z,3.13
2023-08-17T02:48:49.864Z,2.90
2023-08-17T02:51:19.381Z,2.78
2023-08-17T02:53:49.431Z,3.47
2023-08-17T02:56:20.280Z,3.55
2023-08-17T02:58:49.849Z,3.30
2023-08-17T03:01:19.583Z,3.38
2023-08-17T03:03:49.303Z,2.78
2023-08-17T03:06:18.751Z,3.80
2023-08-17T03:08:48.477Z,3.15
2023-08-17T03:11:19.489Z,3.78
2023-08-17T03:13:49.945Z,3.60
2023-08-17T03:16:19.504Z,3.58
2023-08-17T03:18:49.545Z,3.40
2023-08-17T03:21:19.839Z,3.47
2023-08-17T03:23:49.418Z,3.35
2023-08-17T03:26:20.360Z,2.80
2023-08-17T03:28:49.966Z,3.65
2023-08-17T03:31:20.142Z,2.60
2023-08-17T03:33:49.835Z,3.40
2023-08-17T03:36:19.482Z,2.90
2023-08-17T03:38:49.017Z,2.90
2023-08-17T03:41:20.115Z,2.92
2023-08-17T03:43:49.628Z,3.15
2023-08-17T03:48:52.111Z,2.70
2023-08-17T03:51:21.796Z,2.40
2023-08-17T03:53:51.217Z,2.70
2023-08-17T03:56:20.832Z,3.00
2023-08-17T03:58:50.283Z,3.55
2023-08-17T04:01:19.774Z,2.22
2023-08-17T04:03:50.732Z,2.58
2023-08-17T04:06:20.162Z,2.55
2023-08-17T04:08:49.586Z,3.03
2023-08-17T04:11:19.132Z,2.00
2023-08-17T04:13:48.810Z,2.50
2023-08-17T04:16:18.321Z,2.45
2023-08-17T04:18:47.930Z,2.33
2023-08-17T04:21:19.010Z,2.20
2023-08-17T04:23:48.752Z,2.03
2023-08-17T04:26:18.165Z,2.00
2023-08-17T04:28:48.299Z,1.88
2023-08-17T04:31:18.681Z,1.98
2023-08-17T04:33:48.420Z,1.60
2023-08-17T04:36:19.516Z,1.42
2023-08-17T04:38:49.203Z,1.58
2023-08-17T04:41:18.224Z,1.70
2023-08-17T04:43:48.941Z,1.55
2023-08-17T04:46:18.475Z,1.30
2023-08-17T04:48:48.089Z,1.35
2023-08-17T04:51:19.234Z,2.17
2023-08-17T04:53:48.869Z,1.40
2023-08-17T04:56:18.463Z,1.13
2023-08-17T04:58:48.096Z,1.42
2023-08-17T05:01:17.693Z,1.50
2023-08-17T05:03:48.130Z,1.40
2023-08-17T05:06:19.302Z,0.98
2023-08-17T05:08:48.820Z,1.38
2023-08-17T05:11:18.540Z,0.98
2023-08-17T05:13:48.101Z,1.52
2023-08-17T05:16:17.770Z,1.17
2023-08-17T05:18:47.282Z,1.55
2023-08-17T05:21:18.315Z,1.10
2023-08-17T05:23:47.892Z,1.15
2023-08-17T05:26:17.853Z,1.67
2023-08-17T05:28:47.610Z,0.95
2023-08-17T05:31:17.519Z,1.70
2023-08-17T05:33:46.906Z,1.15
2023-08-17T05:36:18.031Z,1.27
2023-08-17T05:38:47.498Z,1.10
2023-08-17T05:41:18.905Z,1.35
2023-08-17T05:43:49.738Z,1.10
2023-08-17T05:46:19.375Z,1.23
2023-08-17T05:48:48.937Z,1.20
2023-08-17T05:51:19.909Z,0.95
2023-08-17T05:53:49.550Z,0.90
2023-08-17T05:56:19.045Z,1.02
2023-08-17T05:58:48.585Z,1.10
2023-08-17T06:01:18.398Z,1.00
2023-08-17T06:03:48.445Z,0.82
2023-08-17T06:06:19.492Z,0.70
2023-08-17T06:08:49.032Z,0.80
2023-08-17T06:11:18.608Z,0.90
2023-08-17T06:13:48.062Z,0.93
2023-08-17T06:16:17.605Z,0.90
2023-08-17T06:18:47.258Z,0.52
2023-08-17T06:21:16.994Z,0.80
2023-08-17T06:23:47.920Z,0.90
2023-08-17T06:26:17.457Z,0.80
2023-08-17T06:28:46.905Z,1.10
2023-08-17T06:31:18.620Z,0.60
2023-08-17T06:33:48.641Z,0.80
2023-08-17T06:36:18.153Z,0.77
2023-08-17T06:38:49.132Z,0.57
2023-08-17T06:41:19.739Z,0.98
2023-08-17T06:43:49.200Z,0.60
2023-08-17T06:48:51.908Z,0.60
2023-08-17T06:51:21.446Z,0.70
2023-08-17T06:53:50.861Z,0.90
2023-08-17T06:56:20.415Z,0.70
2023-08-17T06:58:50.049Z,0.93
2023-08-17T07:01:19.591Z,0.60
2023-08-17T07:03:50.701Z,0.75
2023-08-17T07:06:20.881Z,0.90
2023-08-17T07:08:50.382Z,0.60
2023-08-17T07:11:19.880Z,0.68
2023-08-17T07:13:49.459Z,0.63
2023-08-17T07:16:19.055Z,0.80
2023-08-17T07:18:48.649Z,0.60
2023-08-17T07:21:19.858Z,0.73
2023-08-17T07:23:49.569Z,0.55
2023-08-17T07:26:20.376Z,0.40
2023-08-17T07:28:50.694Z,0.47
2023-08-17T07:31:20.344Z,0.70
2023-08-17T07:33:49.987Z,0.70
2023-08-17T07:36:20.985Z,0.50
2023-08-17T07:38:50.796Z,0.60
2023-08-17T07:41:20.373Z,0.47
2023-08-17T07:43:50.062Z,0.40
2023-08-17T07:46:19.745Z,0.50
2023-08-17T07:48:49.328Z,0.40
2023-08-17T07:51:20.572Z,0.40
2023-08-17T07:53:50.212Z,0.40
2023-08-17T07:56:19.881Z,0.40
2023-08-17T07:58:49.539Z,0.40
2023-08-17T08:01:19.602Z,0.30
2023-08-17T08:03:49.281Z,0.40
2023-08-17T08:06:21.767Z,0.45
2023-08-17T08:08:51.893Z,0.30
2023-08-17T08:11:21.484Z,0.70
2023-08-17T08:13:51.137Z,0.50
2023-08-17T08:16:20.645Z,0.30
2023-08-17T08:18:50.149Z,0.40
2023-08-17T08:21:21.227Z,0.50
2023-08-17T08:23:50.724Z,0.30
2023-08-17T08:26:20.278Z,0.22
2023-08-17T08:28:49.797Z,0.40
2023-08-17T08:31:19.359Z,0.77
2023-08-17T08:33:48.942Z,0.40
2023-08-17T08:36:20.010Z,0.55
2023-08-17T08:38:49.459Z,0.45
2023-08-17T08:41:19.002Z,0.57
2023-08-17T08:43:48.481Z,0.60
2023-08-17T08:46:20.407Z,0.55
2023-08-17T08:48:54.297Z,1.17
2023-08-17T08:51:31.175Z,0.90
2023-08-17T08:54:05.929Z,0.50
2023-08-17T08:56:37.845Z,0.40
2023-08-17T08:59:08.409Z,0.80
2023-08-17T09:01:38.686Z,0.55
2023-08-17T09:04:08.997Z,1.10
2023-08-17T09:06:42.076Z,0.63
2023-08-17T09:09:12.146Z,0.70
2023-08-17T09:11:44.713Z,0.70
2023-08-17T09:14:14.848Z,0.55
2023-08-17T09:16:44.318Z,0.45
2023-08-17T09:19:14.173Z,0.70
2023-08-17T09:24:20.052Z,0.88
2023-08-17T09:26:50.003Z,0.80
2023-08-17T09:29:24.487Z,0.50
2023-08-17T09:31:54.007Z,0.45
2023-08-17T09:34:23.790Z,0.50
2023-08-17T09:36:54.808Z,0.40
2023-08-17T09:39:24.313Z,0.30
2023-08-17T09:41:53.922Z,0.47
2023-08-17T09:44:23.429Z,0.60
2023-08-17T09:48:52.689Z,0.55
2023-08-17T09:51:22.327Z,0.57
2023-08-17T09:53:59.985Z,0.60
2023-08-17T09:56:31.225Z,0.60
2023-08-17T09:59:00.793Z,0.70
2023-08-17T10:01:32.673Z,0.40
2023-08-17T10:04:06.724Z,0.68
2023-08-17T10:06:39.008Z,0.50
2023-08-17T10:09:10.461Z,0.70
2023-08-17T10:11:43.409Z,0.73
2023-08-17T10:14:20.917Z,0.60
2023-08-17T10:17:01.124Z,1.20
2023-08-17T10:19:41.950Z,0.68
2023-08-17T10:22:21.907Z,0.77
2023-08-17T10:24:52.808Z,0.75
2023-08-17T10:27:24.770Z,0.67
2023-08-17T10:29:55.063Z,0.88
2023-08-17T10:32:27.465Z,0.80
2023-08-17T10:35:01.292Z,0.60
2023-08-17T10:37:32.122Z,0.70
2023-08-17T10:40:01.686Z,0.93
2023-08-17T10:42:36.607Z,1.00
2023-08-17T10:45:32.181Z,1.58
2023-08-17T10:48:30.939Z,1.42
2023-08-17T10:51:07.762Z,1.70
2023-08-17T10:53:44.113Z,1.75
2023-08-17T10:56:17.711Z,1.33
2023-08-17T10:58:47.755Z,1.08
2023-08-17T11:01:22.490Z,0.70
2023-08-17T11:04:13.903Z,1.67
2023-08-17T11:06:46.357Z,1.63
2023-08-17T11:09:19.800Z,1.85
2023-08-17T11:11:56.653Z,1.90
2023-08-17T11:14:26.312Z,2.10
2023-08-17T11:16:55.978Z,2.00
2023-08-17T11:19:25.423Z,1.75
2023-08-17T11:21:56.599Z,1.90
2023-08-17T11:24:29.386Z,2.00
2023-08-17T11:27:00.472Z,2.30
2023-08-17T11:29:34.660Z,2.10
2023-08-17T11:32:04.270Z,2.15
2023-08-17T11:34:35.193Z,2.05
2023-08-17T11:37:06.760Z,3.10
2023-08-17T11:42:07.403Z,3.05
2023-08-17T11:44:37.451Z,2.50
2023-08-17T11:47:07.819Z,2.80
2023-08-17T11:49:38.852Z,2.55
2023-08-17T11:52:13.087Z,2.50
2023-08-17T11:54:44.176Z,2.72
2023-08-17T11:57:13.873Z,2.70
2023-08-17T11:59:43.953Z,2.60
2023-08-17T12:02:13.683Z,2.67
2023-08-17T12:04:43.384Z,2.15
2023-08-17T12:07:15.110Z,2.20
2023-08-17T12:09:45.125Z,2.45
2023-08-17T12:12:15.206Z,2.53
2023-08-17T12:14:46.393Z,2.65
2023-08-17T12:17:18.707Z,2.67
2023-08-17T12:19:52.579Z,2.40
2023-08-17T12:22:27.378Z,2.60
2023-08-17T12:24:57.319Z,2.40
2023-08-17T12:27:26.939Z,2.15
2023-08-17T12:29:56.310Z,2.13
2023-08-17T12:32:26.167Z,2.80
2023-08-17T12:34:55.970Z,2.50
2023-08-17T12:37:26.963Z,2.88
2023-08-17T12:39:56.513Z,2.30
2023-08-17T12:42:26.126Z,2.63
2023-08-17T12:44:55.722Z,2.90
2023-08-17T12:48:51.625Z,2.28
2023-08-17T12:51:21.143Z,2.15
2023-08-17T12:53:50.798Z,2.25
2023-08-17T12:56:20.542Z,3.00
2023-08-17T12:58:50.096Z,2.97
2023-08-17T13:01:20.298Z,2.30
2023-08-17T13:03:51.331Z,2.88
2023-08-17T13:06:20.861Z,2.50
2023-08-17T13:08:50.401Z,2.55
2023-08-17T13:11:20.170Z,2.63
2023-08-17T13:13:49.654Z,2.53
2023-08-17T13:16:19.911Z,2.50
2023-08-17T13:18:50.892Z,2.60
2023-08-17T13:21:21.678Z,2.80
2023-08-17T13:23:51.181Z,2.70
2023-08-17T13:26:20.757Z,2.47
2023-08-17T13:28:50.143Z,3.50
2023-08-17T13:31:24.867Z,2.92
2023-08-17T13:33:56.303Z,2.63
2023-08-17T13:36:25.907Z,2.67
2023-08-17T13:38:55.317Z,2.40
2023-08-17T13:41:26.452Z,2.33
2023-08-17T13:44:00.321Z,2.85
2023-08-17T13:46:30.602Z,3.05
2023-08-17T13:49:01.581Z,2.38
2023-08-17T13:51:31.119Z,3.10
2023-08-17T13:54:00.604Z,2.63
2023-08-17T13:56:30.289Z,2.63
2023-08-17T13:58:59.824Z,3.08
2023-08-17T14:01:29.902Z,2.85
2023-08-17T14:04:01.111Z,2.80
2023-08-17T14:06:30.819Z,2.75
2023-08-17T14:09:00.554Z,2.60
2023-08-17T14:11:29.938Z,3.00
2023-08-17T14:13:59.617Z,2.42
2023-08-17T14:16:29.080Z,2.80
2023-08-17T14:19:00.149Z,2.90
2023-08-17T14:21:29.590Z,2.85
2023-08-17T14:23:59.121Z,3.03
2023-08-17T14:26:58.084Z,2.95
2023-08-17T14:29:27.718Z,2.70
2023-08-17T14:31:57.315Z,2.95
2023-08-17T14:34:28.187Z,3.22
2023-08-17T14:36:57.704Z,3.40
2023-08-17T14:39:27.206Z,2.95
2023-08-17T14:41:56.846Z,3.55
2023-08-17T14:44:26.654Z,3.22
2023-08-17T14:46:56.214Z,3.08
2023-08-17T14:49:27.502Z,3.22
2023-08-17T14:51:57.365Z,3.53
2023-08-17T14:54:27.670Z,3.20
2023-08-17T14:56:57.674Z,2.90
2023-08-17T14:59:27.530Z,3.55
2023-08-17T15:01:57.934Z,3.25
2023-08-17T15:04:28.898Z,3.25
2023-08-17T15:06:58.347Z,3.77
2023-08-17T15:09:27.973Z,3.55
2023-08-17T15:11:57.649Z,3.22
2023-08-17T15:14:27.191Z,3.65
2023-08-17T15:16:56.738Z,3.42
2023-08-17T15:19:39.823Z,3.72
2023-08-17T15:22:15.425Z,3.67
2023-08-17T15:24:46.134Z,3.45
2023-08-17T15:27:16.138Z,3.63
2023-08-17T15:29:45.943Z,3.75
2023-08-17T15:32:15.566Z,3.45
2023-08-17T15:34:46.542Z,3.80
2023-08-17T15:37:16.220Z,3.47
2023-08-17T15:39:45.867Z,3.40
2023-08-17T15:42:15.667Z,3.72
2023-08-17T15:44:45.215Z,3.55
2023-08-17T15:48:51.487Z,3.83
2023-08-17T15:51:21.086Z,4.00
2023-08-17T15:53:50.607Z,4.00
2023-08-17T15:56:21.498Z,3.78
2023-08-17T15:58:51.024Z,3.63
2023-08-17T16:01:20.549Z,3.60
2023-08-17T16:03:51.578Z,3.88
2023-08-17T16:06:21.193Z,4.00
2023-08-17T16:08:50.772Z,4.35
2023-08-17T16:11:20.434Z,4.03
2023-08-17T16:13:50.304Z,4.20
2023-08-17T16:16:20.226Z,3.70
2023-08-17T16:18:51.246Z,3.63
2023-08-17T16:21:20.874Z,4.00
2023-08-17T16:23:50.279Z,3.95
2023-08-17T16:26:19.809Z,4.00
2023-08-17T16:28:51.466Z,4.60
2023-08-17T16:33:52.077Z,3.83
2023-08-17T16:36:21.770Z,4.67
2023-08-17T16:38:55.759Z,4.22
2023-08-17T16:41:25.648Z,4.15
2023-08-17T16:43:55.165Z,4.70
2023-08-17T16:46:24.932Z,4.30
2023-08-17T16:48:56.104Z,4.50
2023-08-17T16:51:25.696Z,4.28
2023-08-17T16:53:55.344Z,4.25
2023-08-17T16:56:25.382Z,4.60
2023-08-17T16:58:55.041Z,4.45
2023-08-17T17:01:24.777Z,4.40
2023-08-17T17:03:56.047Z,4.28
2023-08-17T17:06:25.647Z,4.57
2023-08-17T17:08:55.184Z,4.43
2023-08-17T17:11:24.806Z,4.65
2023-08-17T17:13:56.107Z,4.30
2023-08-17T17:16:27.347Z,4.88
2023-08-17T17:18:58.380Z,4.40
2023-08-17T17:21:28.105Z,4.40
2023-08-17T17:23:57.640Z,4.68
2023-08-17T17:26:27.199Z,4.80
2023-08-17T17:28:56.736Z,4.97
2023-08-17T17:31:26.256Z,4.63
2023-08-17T17:33:57.249Z,4.68
2023-08-17T17:36:26.838Z,4.83
2023-08-17T17:38:56.511Z,4.93
2023-08-17T17:41:26.158Z,4.75
2023-08-17T17:43:55.764Z,4.47
2023-08-17T17:46:25.495Z,4.90
2023-08-17T17:48:56.737Z,4.72
2023-08-17T17:51:26.422Z,5.05
2023-08-17T17:53:57.044Z,5.25
2023-08-17T17:56:40.713Z,5.18
2023-08-17T17:59:11.754Z,5.15
2023-08-17T18:01:41.681Z,5.40
2023-08-17T18:04:12.730Z,4.82
2023-08-17T18:06:42.220Z,4.93
2023-08-17T18:09:11.673Z,5.40
2023-08-17T18:11:41.398Z,5.40
2023-08-17T18:14:11.062Z,5.22
2023-08-17T18:16:40.661Z,4.95
2023-08-17T18:19:11.615Z,4.60
2023-08-17T18:21:41.139Z,4.68
2023-08-17T18:24:11.086Z,5.13
2023-08-17T18:26:40.733Z,5.07
2023-08-17T18:29:10.569Z,5.10
2023-08-17T18:31:42.282Z,5.45
2023-08-17T18:34:13.581Z,5.38
2023-08-17T18:36:43.082Z,4.68
2023-08-17T18:39:12.727Z,5.43
2023-08-17T18:41:42.392Z,5.30
2023-08-17T18:44:11.908Z,5.88
2023-08-17T18:48:51.332Z,5.47
2023-08-17T18:51:21.004Z,5.30
2023-08-17T18:53:50.607Z,5.65
2023-08-17T18:56:20.228Z,5.38
2023-08-17T18:58:49.826Z,5.85
2023-08-17T19:01:19.402Z,5.53
2023-08-17T19:03:50.587Z,5.47
2023-08-17T19:06:20.171Z,6.38
2023-08-17T19:08:49.766Z,5.57
2023-08-17T19:11:19.345Z,5.43
2023-08-17T19:13:48.856Z,5.30
2023-08-17T19:16:18.444Z,5.72
2023-08-17T19:18:49.498Z,5.97
2023-08-17T19:21:19.204Z,5.60
2023-08-17T19:23:48.820Z,5.28
2023-08-17T19:26:18.772Z,5.70
2023-08-17T19:28:48.466Z,5.13
2023-08-17T19:31:18.150Z,4.72
2023-08-17T19:33:49.393Z,5.30
2023-08-17T19:36:18.957Z,5.87
2023-08-17T19:38:48.524Z,5.53
2023-08-17T19:41:18.195Z,5.38
2023-08-17T19:43:47.714Z,5.45
2023-08-17T19:46:17.352Z,5.30
2023-08-17T19:48:51.341Z,5.60
2023-08-17T19:51:21.100Z,5.90
2023-08-17T19:53:50.569Z,5.55
2023-08-17T19:56:20.472Z,5.53
2023-08-17T19:58:49.860Z,5.55
2023-08-17T20:01:19.565Z,5.47
2023-08-17T20:03:51.649Z,5.28
2023-08-17T20:06:21.540Z,5.50
2023-08-17T20:08:51.155Z,5.40
2023-08-17T20:11:20.820Z,5.40
2023-08-17T20:13:50.555Z,5.60
2023-08-17T20:16:20.248Z,5.07
2023-08-17T20:18:51.268Z,5.18
2023-08-17T20:21:20.751Z,5.25
2023-08-17T20:23:50.935Z,5.05
2023-08-17T20:26:20.479Z,4.85
2023-08-17T20:28:49.960Z,4.57
2023-08-17T20:31:19.755Z,4.53
2023-08-17T20:33:50.806Z,4.90
2023-08-17T20:36:20.378Z,4.70
2023-08-17T20:38:49.863Z,4.65
2023-08-17T20:41:21.183Z,5.10
2023-08-17T20:43:50.801Z,4.90
2023-08-17T20:46:20.531Z,4.63
2023-08-17T20:48:52.160Z,4.72
2023-08-17T20:51:21.792Z,4.10
2023-08-17T20:53:51.345Z,3.83
2023-08-17T20:56:21.038Z,4.03
2023-08-17T20:58:50.580Z,4.43
2023-08-17T21:01:20.459Z,4.57
2023-08-17T21:03:51.589Z,4.00
2023-08-17T21:06:21.271Z,4.30
2023-08-17T21:08:50.781Z,4.10
2023-08-17T21:11:20.533Z,4.38
2023-08-17T21:13:50.097Z,4.18
2023-08-17T21:16:20.018Z,4.55
2023-08-17T21:18:51.197Z,4.40
2023-08-17T21:21:20.872Z,4.20
2023-08-17T21:23:50.442Z,4.40
2023-08-17T21:26:19.947Z,4.43
2023-08-17T21:28:49.802Z,4.53
2023-08-17T21:31:19.451Z,4.50
2023-08-17T21:33:50.506Z,4.28
2023-08-17T21:36:20.033Z,4.10
2023-08-17T21:38:49.531Z,4.15
2023-08-17T21:41:19.649Z,4.13
2023-08-17T21:43:49.221Z,4.40
2023-08-17T21:48:50.974Z,3.75
2023-08-17T21:51:20.582Z,4.28
2023-08-17T21:53:50.062Z,4.47
2023-08-17T21:56:19.767Z,4.25
2023-08-17T21:58:49.290Z,4.25
2023-08-17T22:01:18.797Z,3.42
2023-08-17T22:03:49.918Z,4.10
2023-08-17T22:06:19.469Z,4.38
2023-08-17T22:08:49.245Z,4.25
2023-08-17T22:11:18.660Z,4.00
2023-08-17T22:13:48.168Z,4.20
2023-08-17T22:16:17.618Z,4.18
2023-08-17T22:18:47.283Z,4.05
2023-08-17T22:21:18.654Z,3.95
2023-08-17T22:23:48.237Z,4.23
2023-08-17T22:26:17.710Z,4.20
2023-08-17T22:28:47.494Z,3.75
2023-08-17T22:31:17.048Z,4.63
2023-08-17T22:33:46.624Z,3.95
2023-08-17T22:36:17.620Z,4.13
2023-08-17T22:38:47.075Z,4.07
2023-08-17T22:41:16.515Z,4.38
2023-08-17T22:43:46.078Z,4.28
2023-08-17T22:46:15.799Z,3.90
2023-08-17T22:48:45.648Z,4.30
2023-08-17T22:51:17.452Z,4.20
2023-08-17T22:53:46.971Z,3.88
2023-08-17T22:56:16.535Z,3.53
2023-08-17T22:58:46.226Z,3.40
2023-08-17T23:01:16.307Z,3.85
2023-08-17T23:03:45.798Z,4.22
2023-08-17T23:06:16.807Z,3.80
2023-08-17T23:08:46.377Z,4.22
2023-08-17T23:11:15.912Z,4.22
2023-08-17T23:13:45.826Z,4.18
2023-08-17T23:16:15.359Z,3.60
2023-08-17T23:18:44.888Z,3.33
2023-08-17T23:21:14.427Z,3.30
2023-08-17T23:23:45.355Z,4.13
2023-08-17T23:26:14.970Z,4.25
2023-08-17T23:28:44.468Z,4.00
2023-08-17T23:31:14.233Z,3.83
2023-08-17T23:33:43.945Z,3.85
2023-08-17T23:36:14.512Z,4.40
2023-08-17T23:38:46.227Z,4.35
2023-08-17T23:41:15.912Z,3.85
2023-08-17T23:43:45.508Z,3.80
2023-08-17T23:46:15.184Z,4.03
2023-08-17T23:48:44.881Z,4.35
2023-08-17T23:51:14.330Z,3.88
2023-08-17T23:53:45.311Z,4.20
2023-08-17T23:56:14.984Z,4.03
2023-08-17T23:58:44.535Z,4.32
